Time;durP1;ratioP1;P1;durP2;ratioP2;P2;SDS_P1;SDS_P2;PMS_P1;PMS_P2;Temp;Humidity;BMP_temperature;BMP_pressure;BME280_temperature;BME280_humidity;BME280_pressure;Samples;Min_cycle;Max_cycle;Signal;HPM_P1;HPM_P2
2022/04/15 00:01:17;;;;;;;13.30;10.80;;;;;;;14.39;58.82;100658.69;110102;1260;22084;-80
2022/04/15 00:04:00;;;;;;;15.00;12.00;;;;;;;14.32;58.92;100661.30;109783;1260;23576;-80
2022/04/15 00:07:05;;;;;;;20.00;12.40;;;;;;;14.22;59.17;100665.17;110298;1259;22351;-81
2022/04/15 00:09:50;;;;;;;11.80;10.40;;;;;;;14.15;59.46;100665.25;110119;1260;23039;-81
2022/04/15 00:12:35;;;;;;;10.30;9.00;;;;;;;14.11;59.49;100663.67;110204;1259;21976;-82
2022/04/15 00:15:27;;;;;;;9.20;8.10;;;;;;;14.08;59.61;100662.86;110220;1260;22015;-81
2022/04/15 00:18:06;;;;;;;8.00;7.10;;;;;;;14.07;59.74;100656.09;109770;1263;22562;-81
2022/04/15 00:21:15;;;;;;;9.60;7.30;;;;;;;14.06;60.08;100661.36;109963;1263;22568;-81
2022/04/15 00:24:07;;;;;;;8.10;6.60;;;;;;;14.03;60.12;100665.28;109753;1263;23052;-80
2022/04/15 00:26:46;;;;;;;8.30;6.10;;;;;;;14.01;60.27;100666.47;109897;1263;21965;-80
2022/04/15 00:29:28;;;;;;;9.70;6.80;;;;;;;14.00;60.41;100661.96;110052;1262;21978;-80
2022/04/15 00:32:27;;;;;;;7.60;5.80;;;;;;;14.03;60.63;100660.78;109374;1267;22078;-82
2022/04/15 00:35:05;;;;;;;7.40;5.70;;;;;;;14.03;60.79;100669.16;109206;1267;21985;-81
2022/04/15 00:38:07;;;;;;;;;;;;;;;;;;;;;
2022/04/15 00:41:05;;;;;;;6.80;5.60;;;;;;;14.03;60.91;100681.05;110047;1261;22036;-80
2022/04/15 00:44:01;;;;;;;8.20;6.60;;;;;;;14.01;60.85;100681.14;109469;1263;23264;-80
2022/04/15 00:46:41;;;;;;;6.60;5.90;;;;;;;13.95;60.86;100677.75;109544;1260;23631;-81
2022/04/15 00:49:30;;;;;;;7.70;5.70;;;;;;;13.92;61.05;100674.46;109927;1258;22012;-80
2022/04/15 00:52:33;;;;;;;6.10;5.50;;;;;;;13.95;61.17;100673.95;110073;1257;23070;-81
2022/04/15 00:55:05;;;;;;;8.20;6.30;;;;;;;13.96;61.23;100672.85;110335;1257;23075;-79
2022/04/15 00:57:49;;;;;;;6.90;6.20;;;;;;;13.95;61.24;100679.75;110303;1257;23835;-79
2022/04/15 01:00:23;;;;;;;8.00;6.70;;;;;;;13.93;61.40;100680.04;110124;1257;23074;-79
2022/04/15 01:03:25;;;;;;;6.40;5.70;;;;;;;13.91;61.70;100673.88;110303;1257;23151;-81
2022/04/15 01:06:13;;;;;;;10.70;6.40;;;;;;;13.88;61.89;100673.50;110411;1257;21984;-80
2022/04/15 01:09:08;;;;;;;;;;;;;;;;;;;;;
2022/04/15 01:12:09;;;;;;;10.70;6.40;;;;;;;13.82;62.61;100680.20;110210;1257;21979;-80
2022/04/15 01:15:01;;;;;;;10.20;6.50;;;;;;;13.75;62.77;100681.00;109669;1263;21983;-81
2022/04/15 01:17:43;;;;;;;8.30;7.20;;;;;;;13.71;63.18;100679.95;109798;1262;22932;-81
2022/04/15 01:20:49;;;;;;;;;;;;;;;;;;;;;
2022/04/15 01:24:14;;;;;;;8.00;7.20;;;;;;;13.69;64.19;100685.10;110422;1257;22010;-82
2022/04/15 01:27:50;;;;;;;10.40;7.20;;;;;;;13.65;64.64;100688.25;110547;1257;23038;-80
2022/04/15 01:30:35;;;;;;;8.20;7.20;;;;;;;13.66;64.91;100683.83;109967;1257;22058;-80
2022/04/15 01:33:11;;;;;;;9.80;7.10;;;;;;;13.67;65.16;100681.56;110455;1251;21970;-80
2022/04/15 01:36:01;;;;;;;9.10;8.20;;;;;;;13.68;65.37;100682.51;111037;1251;21960;-81
2022/04/15 01:38:36;;;;;;;8.80;7.40;;;;;;;13.65;65.49;100680.25;110799;1251;21968;-81
2022/04/15 01:41:08;;;;;;;9.00;7.60;;;;;;;13.60;65.72;100675.98;110359;1257;23819;-80
2022/04/15 01:43:43;;;;;;;10.00;9.00;;;;;;;13.59;66.00;100675.99;110307;1257;23018;-81
2022/04/15 01:46:18;;;;;;;13.60;10.00;;;;;;;13.58;66.13;100690.57;110323;1257;21985;-81
2022/04/15 01:49:00;;;;;;;13.80;10.80;;;;;;;13.60;66.45;100697.82;110328;1257;23023;-80
2022/04/15 01:51:40;;;;;;;13.30;11.90;;;;;;;13.62;66.56;100696.55;110337;1257;21973;-81
2022/04/15 01:54:29;;;;;;;13.50;11.50;;;;;;;13.56;66.46;100695.23;110345;1257;23134;-82
2022/04/15 01:57:15;;;;;;;13.80;12.40;;;;;;;13.51;66.72;100698.77;110642;1257;21971;-81
2022/04/15 01:59:48;;;;;;;14.70;12.80;;;;;;;13.46;66.83;100702.68;110667;1251;21994;-82
2022/04/15 02:02:24;;;;;;;16.40;14.80;;;;;;;13.46;67.45;100698.44;110038;1257;21979;-80
2022/04/15 02:05:03;;;;;;;15.40;14.00;;;;;;;13.48;67.68;100697.27;109566;1263;21984;-82
2022/04/15 02:07:36;;;;;;;17.70;16.00;;;;;;;13.46;67.56;100699.27;109886;1263;23081;-80
2022/04/15 02:10:23;;;;;;;19.50;17.60;;;;;;;13.38;67.73;100703.20;109865;1263;22107;-80
2022/04/15 02:12:58;;;;;;;18.20;16.40;;;;;;;13.31;68.00;100706.38;109562;1263;22153;-80
2022/04/15 02:15:45;;;;;;;;;;;;;;;13.27;68.33;100702.92;109655;1263;21950;-81
2022/04/15 02:18:22;;;;;;;17.90;16.00;;;;;;;13.15;68.63;100703.36;109837;1263;22004;-80
2022/04/15 02:20:57;;;;;;;18.50;16.70;;;;;;;13.14;68.84;100703.41;110080;1257;23202;-80
2022/04/15 02:23:34;;;;;;;20.10;18.20;;;;;;;13.15;69.02;100706.29;110260;1253;22027;-80
2022/04/15 02:26:13;;;;;;;18.70;17.00;;;;;;;13.11;69.01;100705.19;109945;1257;22024;-80
2022/04/15 02:29:00;;;;;;;17.80;16.20;;;;;;;13.04;69.23;100709.52;110046;1258;23608;-80
2022/04/15 02:31:43;;;;;;;18.10;16.40;;;;;;;12.99;69.35;100710.01;110007;1260;22076;-80
2022/04/15 02:34:15;;;;;;;20.80;18.80;;;;;;;12.93;69.58;100708.38;109344;1267;22456;-80
2022/04/15 02:36:47;;;;;;;19.50;17.40;;;;;;;12.87;69.78;100704.10;108851;1273;22003;-81
2022/04/15 02:39:19;;;;;;;18.80;17.00;;;;;;;12.82;69.92;100702.90;108666;1276;23615;-80
2022/04/15 02:41:51;;;;;;;19.90;18.00;;;;;;;12.78;70.06;100703.35;108524;1279;24655;-81
2022/04/15 02:44:24;;;;;;;20.90;18.80;;;;;;;12.76;70.26;100706.34;108543;1277;22044;-80
2022/04/15 02:46:57;;;;;;;22.50;20.10;;;;;;;12.72;70.38;100702.58;108398;1277;22037;-80
2022/04/15 02:49:42;;;;;;;22.80;20.70;;;;;;;12.65;70.47;100699.83;108720;1270;21986;-80
2022/04/15 02:52:28;;;;;;;23.30;21.20;;;;;;;12.58;70.74;100703.04;108883;1270;22095;-81
2022/04/15 02:55:00;;;;;;;24.60;22.10;;;;;;;12.56;70.97;100706.36;109169;1264;21996;-82
2022/04/15 02:57:30;;;;;;;22.80;20.70;;;;;;;12.53;71.06;100702.21;109468;1263;23583;-81
2022/04/15 03:00:21;;;;;;;23.40;21.40;;;;;;;12.51;71.24;100697.84;110215;1251;21982;-82
2022/04/15 03:02:52;;;;;;;23.40;21.40;;;;;;;12.47;71.29;100695.80;110284;1258;21974;-82
2022/04/15 03:05:24;;;;;;;24.10;21.70;;;;;;;12.46;71.54;100696.66;110546;1259;21966;-81
2022/04/15 03:08:17;;;;;;;25.50;23.20;;;;;;;12.42;71.62;100695.92;110379;1257;21979;-81
2022/04/15 03:10:52;;;;;;;24.40;22.20;;;;;;;12.40;71.78;100689.18;110430;1257;22004;-81
2022/04/15 03:13:29;;;;;;;26.20;23.60;;;;;;;12.40;71.87;100679.87;110288;1257;21976;-81
2022/04/15 03:16:04;;;;;;;25.40;23.10;;;;;;;12.40;71.93;100675.02;110285;1257;23705;-81
2022/04/15 03:18:36;;;;;;;25.80;23.50;;;;;;;12.41;72.10;100671.21;110219;1258;23599;-81
2022/04/15 03:21:17;;;;;;;28.00;25.10;;;;;;;12.45;72.29;100671.85;110452;1251;22199;-80
2022/04/15 03:23:52;;;;;;;27.70;25.10;;;;;;;12.50;72.31;100669.96;110381;1254;21972;-82
2022/04/15 03:26:31;;;;;;;26.50;24.10;;;;;;;12.49;72.15;100676.23;110424;1255;21982;-82
2022/04/15 03:29:08;;;;;;;26.60;24.10;;;;;;;12.51;72.33;100678.80;110716;1251;22922;-81
2022/04/15 03:31:46;;;;;;;27.20;24.60;;;;;;;12.50;72.30;100673.96;110688;1255;21972;-81
2022/04/15 03:34:28;;;;;;;26.80;24.50;;;;;;;12.50;72.24;100676.61;109929;1260;23074;-80
2022/04/15 03:36:59;;;;;;;29.20;25.70;;;;;;;12.50;72.15;100671.91;109901;1260;21991;-81
2022/04/15 03:39:42;;;;;;;27.90;25.40;;;;;;;12.48;72.03;100672.91;109879;1260;23682;-82
2022/04/15 03:42:23;;;;;;;28.00;25.20;;;;;;;12.49;72.15;100675.03;109947;1260;22131;-81
2022/04/15 03:45:14;;;;;;;;;;;;;;;;;;;;;
2022/04/15 03:48:35;;;;;;;27.40;24.60;;;;;;;12.42;72.14;100670.48;110228;1260;22004;-81
2022/04/15 03:52:14;;;;;;;;;;;;;;;;;;;;;
2022/04/15 03:55:52;;;;;;;;;;;;;;;;;;;;;
2022/04/15 03:59:58;;;;;;;27.50;24.80;;;;;;;12.32;72.53;100660.75;110564;1257;21965;-81
2022/04/15 04:07:10;;;;;;;;;;;;;;;;;;;;;
2022/04/15 04:10:27;;;;;;;26.80;24.30;;;;;;;12.35;72.58;100666.98;108939;1272;22002;-82
2022/04/15 04:13:11;;;;;;;;;;;;;;;12.39;72.49;100672.34;108766;1273;22926;-80
2022/04/15 04:16:41;;;;;;;;;;;;;;;;;;;;;
2022/04/15 04:19:46;;;;;;;26.60;24.10;;;;;;;12.37;72.59;100679.84;108923;1270;21999;-81
2022/04/15 04:23:39;;;;;;;26.40;24.00;;;;;;;12.38;72.62;100682.59;108988;1271;23120;-81
2022/04/15 04:27:16;;;;;;;28.70;25.80;;;;;;;12.39;72.71;100689.33;109011;1272;23147;-81
2022/04/15 04:31:17;;;;;;;;;;;;;;;;;;;;;
2022/04/15 04:34:16;;;;;;;29.60;26.90;;;;;;;12.46;72.73;100689.04;108353;1279;23618;-80
2022/04/15 04:37:15;;;;;;;;;;;;;;;;;;;;;
2022/04/15 04:39:58;;;;;;;31.20;28.30;;;;;;;12.54;72.54;100693.89;108705;1273;21985;-80
2022/04/15 04:42:40;;;;;;;33.10;29.90;;;;;;;12.55;72.36;100696.59;108970;1267;22012;-79
2022/04/15 04:45:51;;;;;;;;;;;;;;;;;;;;;
2022/04/15 04:49:01;;;;;;;31.40;28.70;;;;;;;12.49;72.75;100702.16;109484;1264;21972;-78
2022/04/15 04:52:43;;;;;;;;;;;;;;;;;;;;;
2022/04/15 04:56:46;;;;;;;;;;;;;;;;;;;;;
2022/04/15 04:59:57;;;;;;;32.90;29.90;;;;;;;12.49;72.63;100702.39;108647;1269;21990;-79
2022/04/15 05:02:59;;;;;;;32.20;29.40;;;;;;;12.53;72.55;100705.78;109537;1264;23692;-79
2022/04/15 05:06:27;;;;;;;30.50;27.80;;;;;;;12.53;72.54;100704.15;109372;1263;23089;-78
2022/04/15 05:09:42;;;;;;;36.80;33.30;;;;;;;12.52;72.47;100705.16;108860;1270;21997;-79
2022/04/15 05:12:55;;;;;;;;;;;;;;;;;;;;;
2022/04/15 05:16:19;;;;;;;29.10;26.30;;;;;;;12.59;72.54;100705.63;109726;1262;21978;-80
2022/04/15 05:19:55;;;;;;;;;;;;;;;;;;;;;
2022/04/15 05:22:29;;;;;;;27.40;24.90;;;;;;;12.69;72.45;100716.12;109781;1263;23681;-80
2022/04/15 05:25:08;;;;;;;28.70;26.20;;;;;;;12.72;72.25;100715.98;109183;1263;21981;-79
2022/04/15 05:28:02;;;;;;;28.30;25.80;;;;;;;12.75;72.30;100718.67;109612;1256;23586;-77
2022/04/15 05:30:55;;;;;;;25.80;23.20;;;;;;;12.77;72.29;100722.95;110317;1256;21969;-78
2022/04/15 05:34:11;;;;;;;27.60;25.00;;;;;;;12.77;72.20;100724.99;110267;1256;22965;-76
2022/04/15 05:37:09;;;;;;;26.00;23.60;;;;;;;12.80;72.44;100721.71;109781;1261;21962;-77
2022/04/15 05:40:27;;;;;;;28.70;25.80;;;;;;;12.85;72.47;100725.48;109969;1259;22994;-81
2022/04/15 05:43:48;;;;;;;;;;;;;;;;;;;;;
2022/04/15 05:47:53;;;;;;;;;;;;;;;;;;;;;
2022/04/15 05:51:12;;;;;;;26.90;24.40;;;;;;;12.83;72.28;100735.88;109933;1260;23063;-80
2022/04/15 05:55:14;;;;;;;24.70;22.10;;;;;;;12.84;72.36;100735.73;110090;1255;22893;-80
2022/04/15 05:58:17;;;;;;;51.50;38.30;;;;;;;12.86;72.30;100739.05;110266;1254;22141;-79
2022/04/15 06:01:34;;;;;;;;;;;;;;;;;;;;;
2022/04/15 06:05:01;;;;;;;24.80;22.40;;;;;;;12.92;72.01;100734.77;110043;1260;22240;-80
2022/04/15 06:13:19;;;;;;;22.90;20.70;;;;;;;12.98;71.97;100737.29;110440;1256;22068;-80
2022/04/15 06:16:43;;;;;;;25.50;22.90;;;;;;;13.02;71.66;100741.11;110528;1256;23075;-80
2022/04/15 06:20:45;;;;;;;;;;;;;;;;;;;;;
2022/04/15 06:24:11;;;;;;;23.80;21.70;;;;;;;13.11;71.83;100740.90;110513;1255;23120;-79
2022/04/15 06:26:41;;;;;;;24.80;22.50;;;;;;;13.19;71.57;100739.13;109973;1260;22698;-79
2022/04/15 06:29:18;;;;;;;25.10;22.70;;;;;;;13.24;71.29;100747.04;109429;1261;23029;-80
2022/04/15 06:31:50;;;;;;;25.20;22.70;;;;;;;13.30;71.17;100747.12;109358;1260;23777;-79
2022/04/15 06:34:21;;;;;;;25.10;22.60;;;;;;;13.30;70.77;100745.39;109770;1261;22037;-78
2022/04/15 06:36:55;;;;;;;24.80;22.70;;;;;;;13.27;70.63;100744.88;109635;1261;21993;-79
2022/04/15 06:39:25;;;;;;;24.20;21.70;;;;;;;13.24;70.68;100743.95;109579;1260;24925;-79
2022/04/15 06:41:58;;;;;;;25.50;23.20;;;;;;;13.20;70.64;100744.81;109772;1263;22163;-78
2022/04/15 06:44:28;;;;;;;31.00;28.10;;;;;;;13.19;70.82;100743.36;109597;1261;22624;-79
2022/04/15 06:46:57;;;;;;;36.60;32.80;;;;;;;13.16;70.84;100746.13;109721;1260;23686;-78
2022/04/15 06:49:29;;;;;;;34.80;30.80;;;;;;;13.13;70.95;100749.83;109894;1260;23069;-80
2022/04/15 06:51:58;;;;;;;31.20;28.00;;;;;;;13.11;71.13;100754.68;109868;1257;23743;-79
2022/04/15 06:54:29;;;;;;;30.50;27.30;;;;;;;13.09;71.11;100755.83;110482;1251;23604;-80
2022/04/15 06:56:58;;;;;;;28.80;26.20;;;;;;;13.05;71.10;100755.39;110769;1252;21978;-79
2022/04/15 06:59:29;;;;;;;30.30;27.40;;;;;;;13.01;71.16;100753.19;110459;1251;22736;-79
2022/04/15 07:02:01;;;;;;;29.70;27.00;;;;;;;13.00;71.31;100752.95;110739;1251;21956;-79
2022/04/15 07:04:39;;;;;;;29.10;26.20;;;;;;;12.98;71.34;100750.95;110885;1251;23070;-78
2022/04/15 07:07:08;;;;;;;28.50;25.70;;;;;;;12.94;71.41;100749.95;110777;1251;22136;-80
2022/04/15 07:09:37;;;;;;;27.80;25.20;;;;;;;12.91;71.43;100752.98;110272;1258;22038;-78
2022/04/15 07:12:18;;;;;;;28.70;25.80;;;;;;;12.90;71.97;100755.89;109847;1258;21966;-78
2022/04/15 07:14:57;;;;;;;29.80;27.00;;;;;;;12.95;72.21;100756.23;110051;1257;24296;-77
2022/04/15 07:17:50;;;;;;;30.30;27.60;;;;;;;12.98;72.32;100756.35;110119;1257;21974;-79
2022/04/15 07:20:22;;;;;;;27.40;25.00;;;;;;;13.05;72.41;100758.61;109964;1258;21982;-79
2022/04/15 07:23:01;;;;;;;28.00;25.30;;;;;;;13.11;72.28;100760.39;109580;1261;22442;-79
2022/04/15 07:25:42;;;;;;;;;;;;;;;;;;;;;
2022/04/15 07:28:35;;;;;;;28.40;25.70;;;;;;;13.16;72.14;100762.15;109535;1260;21976;-79
2022/04/15 07:31:18;;;;;;;28.60;26.00;;;;;;;13.20;72.24;100761.46;109292;1263;21973;-80
2022/04/15 07:33:51;;;;;;;27.90;25.40;;;;;;;13.23;72.12;100764.31;109278;1264;22750;-79
2022/04/15 07:36:43;;;;;;;29.30;26.70;;;;;;;13.28;72.06;100766.63;109213;1265;21985;-81
2022/04/15 07:39:25;;;;;;;26.80;24.20;;;;;;;13.37;72.57;100765.56;109408;1263;21976;-80
2022/04/15 07:43:12;;;;;;;24.30;22.10;;;;;;;13.66;73.33;100769.55;109127;1267;22920;-80
2022/04/15 07:46:54;;;;;;;24.90;22.50;;;;;;;13.95;73.04;100769.38;109419;1267;22075;-79
2022/04/15 07:49:56;;;;;;;;;;;;;;;;;;;;;
2022/04/15 07:52:37;;;;;;;20.40;18.60;;;;;;;14.36;71.62;100762.83;109765;1262;21974;-81
2022/04/15 07:59:19;;;;;;;20.00;18.30;;;;;;;14.77;69.79;100764.00;107123;1261;3355370;-80
2022/04/15 08:02:39;;;;;;;20.90;19.00;;;;;;;14.92;69.31;100767.91;110255;1255;21970;-80
2022/04/15 08:06:20;;;;;;;18.40;16.80;;;;;;;15.01;68.43;100778.33;110347;1255;22134;-80
2022/04/15 08:09:16;;;;;;;19.00;17.40;;;;;;;15.04;67.08;100780.38;110173;1260;21975;-81
2022/04/15 08:12:32;;;;;;;18.20;16.60;;;;;;;15.01;66.33;100779.85;110168;1254;21997;-80
2022/04/15 08:15:38;;;;;;;19.00;17.50;;;;;;;15.01;66.06;100778.42;109298;1264;23058;-79
2022/04/15 08:18:15;;;;;;;18.20;16.70;;;;;;;14.97;65.56;100779.67;109142;1264;23106;-79
2022/04/15 08:20:48;;;;;;;17.00;15.60;;;;;;;14.95;65.30;100778.51;109187;1266;21998;-79
2022/04/15 08:23:32;;;;;;;17.00;15.60;;;;;;;14.94;65.00;100778.98;109072;1266;23590;-80
2022/04/15 08:26:12;;;;;;;18.40;16.80;;;;;;;14.97;64.91;100777.26;108939;1267;23637;-79
2022/04/15 08:28:53;;;;;;;19.30;17.80;;;;;;;15.04;64.96;100775.42;109162;1265;22858;-78
2022/04/15 08:32:08;;;;;;;22.00;20.10;;;;;;;15.21;65.40;100773.08;108909;1267;21996;-78
2022/04/15 08:34:43;;;;;;;19.20;17.70;;;;;;;15.33;64.34;100774.30;109624;1259;22190;-78
2022/04/15 08:37:26;;;;;;;20.50;18.60;;;;;;;15.33;63.31;100773.30;109999;1259;22743;-78
2022/04/15 08:40:14;;;;;;;18.60;17.10;;;;;;;15.21;62.47;100772.17;109887;1256;22936;-80
2022/04/15 08:43:31;;;;;;;;;;;;;;;;;;;;;
2022/04/15 08:46:12;;;;;;;19.90;18.20;;;;;;;14.86;62.00;100775.11;109928;1256;21965;-80
2022/04/15 08:49:06;;;;;;;19.90;18.10;;;;;;;14.71;62.30;100778.96;110264;1256;23694;-79
2022/04/15 08:51:52;;;;;;;22.50;20.60;;;;;;;14.65;62.49;100776.89;110330;1257;21968;-80
2022/04/15 08:54:43;;;;;;;23.70;21.50;;;;;;;14.63;62.76;100779.23;109737;1258;21992;-78
2022/04/15 08:57:30;;;;;;;19.70;17.80;;;;;;;14.65;62.94;100783.02;109741;1258;23634;-78
2022/04/15 09:00:11;;;;;;;;;;;;;;;;;;;;;
2022/04/15 09:03:06;;;;;;;16.30;14.90;;;;;;;14.74;62.50;100786.58;109667;1261;22028;-79
2022/04/15 09:05:41;;;;;;;14.30;13.00;;;;;;;14.73;62.01;100788.58;110301;1254;22221;-79
2022/04/15 09:08:24;;;;;;;14.50;13.20;;;;;;;14.73;61.75;100785.50;110731;1254;23898;-79
2022/04/15 09:11:21;;;;;;;13.20;12.20;;;;;;;14.79;62.14;100786.81;110498;1254;22278;-79
2022/04/15 09:14:05;;;;;;;;;;;;;;;;;;;;;
2022/04/15 09:16:48;;;;;;;14.80;13.40;;;;;;;15.10;61.51;100789.52;110339;1254;22410;-79
2022/04/15 09:19:28;;;;;;;15.20;13.70;;;;;;;15.19;60.98;100789.79;110686;1251;21970;-79
2022/04/15 09:22:20;;;;;;;16.70;15.10;;;;;;;15.25;60.68;100789.91;110587;1251;22055;-79
2022/04/15 09:24:57;;;;;;;14.80;13.30;;;;;;;15.20;59.70;100791.48;109885;1257;21972;-78
2022/04/15 09:27:41;;;;;;;14.70;13.30;;;;;;;15.02;59.33;100789.23;110283;1256;21967;-80
2022/04/15 09:30:41;;;;;;;15.90;13.50;;;;;;;14.86;59.65;100795.37;109818;1260;22029;-79
2022/04/15 09:33:29;;;;;;;15.10;13.60;;;;;;;14.81;60.16;100797.80;109756;1260;21986;-80
2022/04/15 09:37:02;;;;;;;;;;;;;;;;;;;;;
2022/04/15 09:40:35;;;;;;;12.90;11.80;;;;;;;14.80;60.47;100796.44;109697;1263;21975;-79
2022/04/15 09:43:13;;;;;;;11.90;10.80;;;;;;;14.80;60.27;100800.00;109462;1260;22075;-78
2022/04/15 09:45:46;;;;;;;12.70;11.50;;;;;;;14.79;60.18;100799.04;109937;1259;23134;-78
2022/04/15 09:48:23;;;;;;;14.20;12.80;;;;;;;14.77;60.00;100797.91;109298;1262;21969;-78
2022/04/15 09:50:55;;;;;;;15.20;13.60;;;;;;;14.70;60.11;100800.52;109323;1262;21993;-78
2022/04/15 09:53:34;;;;;;;15.30;13.80;;;;;;;14.70;60.65;100805.67;109592;1262;23116;-79
2022/04/15 09:56:06;;;;;;;13.10;12.10;;;;;;;14.74;60.94;100805.52;109387;1262;24311;-79
2022/04/15 09:58:36;;;;;;;;;;;;;;;14.79;60.88;100806.33;109281;1262;21956;-79
2022/04/15 10:01:08;;;;;;;14.40;12.80;;;;;;;14.76;61.05;100803.83;109589;1261;21968;-78
2022/04/15 10:03:42;;;;;;;15.10;13.50;;;;;;;14.77;60.80;100803.73;109482;1262;22924;-79
2022/04/15 10:06:16;;;;;;;13.30;11.90;;;;;;;14.67;60.54;100799.39;109653;1256;21979;-78
2022/04/15 10:09:06;;;;;;;12.20;11.00;;;;;;;14.53;61.08;100799.96;110095;1256;22026;-79
2022/04/15 10:11:37;;;;;;;10.40;9.10;;;;;;;14.50;61.63;100799.39;109961;1256;22193;-78
2022/04/15 10:14:16;;;;;;;9.80;8.50;;;;;;;14.50;62.01;100797.70;109642;1260;21973;-79
2022/04/15 10:16:45;;;;;;;8.80;7.60;;;;;;;14.61;62.59;100795.77;110017;1253;21971;-78
2022/04/15 10:19:15;;;;;;;12.40;7.80;;;;;;;14.84;62.97;100792.45;110506;1253;24282;-79
2022/04/15 10:21:50;;;;;;;7.60;5.90;;;;;;;15.11;62.56;100792.03;109949;1260;24359;-78
2022/04/15 10:24:23;;;;;;;6.80;6.20;;;;;;;15.31;61.22;100791.83;109191;1262;23679;-79
2022/04/15 10:27:01;;;;;;;6.70;6.10;;;;;;;15.47;60.33;100791.87;109261;1264;22079;-79
2022/04/15 10:29:30;;;;;;;7.50;6.00;;;;;;;15.64;59.68;100789.43;109267;1264;22029;-79
2022/04/15 10:32:14;;;;;;;12.50;7.40;;;;;;;15.69;58.27;100787.98;109271;1260;22752;-80
2022/04/15 10:34:48;;;;;;;9.20;7.10;;;;;;;15.68;57.74;100785.42;109098;1267;21973;-79
2022/04/15 10:37:46;;;;;;;11.40;8.30;;;;;;;15.69;57.48;100789.04;108998;1267;22062;-79
2022/04/15 10:40:31;;;;;;;9.70;8.80;;;;;;;15.61;56.77;100791.07;109447;1260;22441;-77
2022/04/15 10:43:20;;;;;;;14.00;12.50;;;;;;;15.43;56.26;100795.15;109697;1257;21971;-77
2022/04/15 10:46:15;;;;;;;10.50;9.50;;;;;;;15.27;56.62;100789.89;110234;1256;24130;-79
2022/04/15 10:48:45;;;;;;;11.10;10.20;;;;;;;15.12;56.97;100789.72;109891;1256;22012;-78
2022/04/15 10:51:31;;;;;;;12.40;9.60;;;;;;;14.99;57.26;100786.66;109999;1256;22105;-78
2022/04/15 10:54:40;;;;;;;12.00;10.80;;;;;;;14.87;57.38;100793.67;110712;1248;23662;-78
2022/04/15 10:57:14;;;;;;;8.20;7.10;;;;;;;14.67;57.85;100799.31;111010;1250;23000;-78
2022/04/15 11:02:51;;;;;;;8.50;7.70;;;;;;;14.26;58.07;100798.41;110598;1256;23677;-78
2022/04/15 11:05:41;;;;;;;11.70;9.50;;;;;;;14.10;58.99;100799.89;110099;1256;23075;-77
2022/04/15 11:08:16;;;;;;;9.80;8.80;;;;;;;14.08;60.06;100798.91;110336;1256;22724;-79
2022/04/15 11:10:55;;;;;;;12.20;8.90;;;;;;;14.15;60.71;100799.27;110341;1256;21959;-79
2022/04/15 11:13:27;;;;;;;8.60;7.70;;;;;;;14.23;60.82;100798.48;110461;1256;21966;-78
2022/04/15 11:16:14;;;;;;;6.80;6.20;;;;;;;14.30;60.68;100798.55;110417;1256;22101;-78
2022/04/15 11:18:55;;;;;;;6.00;5.00;;;;;;;14.36;60.42;100796.00;110537;1251;23050;-78
2022/04/15 11:21:40;;;;;;;10.10;5.20;;;;;;;14.42;59.85;100801.68;110652;1249;21967;-78
2022/04/15 11:24:11;;;;;;;6.50;5.30;;;;;;;14.35;58.60;100802.35;110765;1250;23017;-79
2022/04/15 11:26:44;;;;;;;5.40;4.90;;;;;;;14.18;57.94;100805.00;110849;1249;23053;-78
2022/04/15 11:29:14;;;;;;;6.10;5.50;;;;;;;14.02;57.71;100810.25;110833;1247;21986;-79
2022/04/15 11:31:49;;;;;;;7.30;4.70;;;;;;;13.86;57.73;100811.41;111289;1247;22757;-80
2022/04/15 11:34:20;;;;;;;8.90;5.10;;;;;;;13.76;58.21;100812.65;110765;1248;22276;-81
2022/04/15 11:36:56;;;;;;;7.20;5.90;;;;;;;13.75;58.48;100810.11;110819;1248;21968;-79
2022/04/15 11:39:35;;;;;;;6.50;4.80;;;;;;;13.77;58.84;100812.84;110649;1250;23809;-80
2022/04/15 11:42:27;;;;;;;;;;;;;;;;;;;;;
2022/04/15 11:45:17;;;;;;;4.30;3.80;;;;;;;13.83;59.16;100806.86;111222;1249;21966;-81
2022/04/15 11:48:50;;;;;;;6.80;5.80;;;;;;;13.86;59.26;100807.60;110827;1250;23006;-80
2022/04/15 11:52:15;;;;;;;;;;;;;;;;;;;;;
2022/04/15 11:55:19;;;;;;;11.40;7.20;;;;;;;13.95;59.55;100806.70;111083;1249;21963;-79
2022/04/15 11:58:11;;;;;;;7.70;6.40;;;;;;;14.03;59.52;100807.36;110720;1249;21987;-81
2022/04/15 12:01:46;;;;;;;;;;;;;;;;;;;;;
2022/04/15 12:04:55;;;;;;;9.60;7.90;;;;;;;14.26;59.37;100804.26;111115;1248;21968;-82
2022/04/15 12:08:10;;;;;;;9.10;8.00;;;;;;;14.36;59.32;100799.55;111069;1251;21966;-82
2022/04/15 12:11:23;;;;;;;;;;;;;;;;;;;;;
2022/04/15 12:14:41;;;;;;;8.90;7.60;;;;;;;14.73;59.19;100794.51;111027;1250;22031;-81
2022/04/15 12:17:52;;;;;;;9.60;8.70;;;;;;;14.81;58.62;100796.33;110500;1256;21973;-78
2022/04/15 12:20:43;;;;;;;9.50;8.00;;;;;;;14.81;58.23;100794.58;110550;1253;23478;-78
2022/04/15 12:23:25;;;;;;;8.80;7.90;;;;;;;14.82;57.99;100797.33;109640;1260;23585;-78
2022/04/15 12:26:09;;;;;;;10.70;8.90;;;;;;;14.77;57.41;100793.62;109722;1260;23711;-79
2022/04/15 12:31:47;;;;;;;11.30;8.50;;;;;;;14.36;56.80;100795.13;110065;1259;22217;-78
2022/04/15 12:34:40;;;;;;;10.90;9.80;;;;;;;14.21;57.25;100798.27;109843;1259;23036;-78
2022/04/15 12:37:46;;;;;;;10.70;9.00;;;;;;;14.13;57.45;100798.95;110119;1257;22032;-78
2022/04/15 12:40:24;;;;;;;10.40;8.80;;;;;;;14.04;57.50;100796.59;109586;1261;23730;-78
2022/04/15 12:43:19;;;;;;;12.30;11.00;;;;;;;13.93;57.33;100799.11;110391;1255;21966;-79
2022/04/15 12:46:20;;;;;;;14.10;10.50;;;;;;;13.83;57.34;100802.54;110137;1258;23590;-81
2022/04/15 12:49:34;;;;;;;9.70;8.20;;;;;;;13.75;57.46;100803.17;110310;1257;22844;-78
2022/04/15 12:52:17;;;;;;;11.30;8.60;;;;;;;13.71;57.45;100806.08;109753;1258;23052;-79
2022/04/15 12:55:05;;;;;;;10.70;9.70;;;;;;;13.67;57.45;100811.33;110095;1257;21986;-78
2022/04/15 12:57:41;;;;;;;15.00;9.30;;;;;;;13.62;57.53;100816.34;110357;1252;24291;-78
2022/04/15 13:00:14;;;;;;;11.50;10.30;;;;;;;13.48;57.63;100817.76;110645;1252;23690;-79
2022/04/15 13:03:17;;;;;;;12.90;9.60;;;;;;;13.20;57.80;100823.75;110638;1249;21949;-80
2022/04/15 13:05:57;;;;;;;10.50;9.30;;;;;;;12.98;58.77;100820.89;110124;1258;22032;-80
2022/04/15 13:08:29;;;;;;;12.60;9.30;;;;;;;12.76;59.64;100822.82;110274;1256;21996;-78
2022/04/15 13:11:01;;;;;;;;;;;;;;;12.59;60.63;100822.21;110167;1259;21943;-78
2022/04/15 13:13:42;;;;;;;14.10;10.60;;;;;;;12.40;61.51;100828.80;110067;1257;21982;-78
2022/04/15 13:16:27;;;;;;;12.00;10.90;;;;;;;12.23;62.15;100832.91;110114;1256;21965;-79
2022/04/15 13:18:58;;;;;;;13.20;11.90;;;;;;;12.12;62.79;100834.67;110254;1256;21976;-79
2022/04/15 13:21:40;;;;;;;13.20;11.80;;;;;;;12.05;63.66;100841.92;109826;1261;23793;-78
2022/04/15 13:24:11;;;;;;;15.10;12.60;;;;;;;11.98;64.25;100840.74;109851;1254;23027;-78
2022/04/15 13:26:47;;;;;;;16.40;14.60;;;;;;;11.93;64.86;100841.83;109792;1258;23059;-81
2022/04/15 13:29:20;;;;;;;18.70;15.10;;;;;;;11.88;65.38;100843.80;109904;1258;21969;-80
2022/04/15 13:32:03;;;;;;;16.30;14.10;;;;;;;11.85;65.89;100842.70;110223;1258;22087;-80
2022/04/15 13:34:36;;;;;;;20.00;16.20;;;;;;;11.84;66.20;100843.45;109903;1258;22120;-81
2022/04/15 13:37:10;;;;;;;18.20;16.50;;;;;;;11.82;66.53;100845.40;109970;1258;21987;-80
2022/04/15 13:39:47;;;;;;;17.80;14.90;;;;;;;11.80;66.97;100849.03;110398;1253;22043;-81
2022/04/15 13:42:21;;;;;;;17.20;14.20;;;;;;;11.75;67.01;100846.64;110269;1254;21959;-79
2022/04/15 13:45:02;;;;;;;16.60;13.40;;;;;;;11.71;67.19;100848.39;109710;1259;22194;-80
2022/04/15 13:47:53;;;;;;;16.00;14.60;;;;;;;11.72;67.69;100848.77;109158;1266;22242;-79
2022/04/15 13:50:35;;;;;;;20.70;16.10;;;;;;;11.69;67.82;100851.70;109205;1264;23051;-80
2022/04/15 13:59:02;;;;;;;16.10;14.50;;;;;;;11.68;68.73;100852.91;109390;1263;23075;-79